Time;durP1;ratioP1;P1;durP2;ratioP2;P2;SDS_P1;SDS_P2;PMS_P1;PMS_P2;Temp;Humidity;BMP_temperature;BMP_pressure;BME280_temperature;BME280_humidity;BME280_pressure;Samples;Min_cycle;Max_cycle;Signal;HPM_P1;HPM_P2
2024/02/20 00:00:06;;;;;;;3.40;1.63;;;20.40;55.40;;;;;;5040196;28;20029;-64
2024/02/20 00:02:32;;;;;;;2.70;1.50;;;20.40;55.40;;;;;;5039968;28;20036;-63
2024/02/20 00:04:58;;;;;;;3.70;1.58;;;20.40;55.80;;;;;;5038823;28;20057;-64
2024/02/20 00:07:24;;;;;;;3.70;1.70;;;20.30;55.30;;;;;;5037454;28;20052;-64
2024/02/20 00:09:50;;;;;;;2.80;1.60;;;20.40;55.40;;;;;;5034845;28;20028;-64
2024/02/20 00:12:15;;;;;;;3.25;1.60;;;20.40;55.40;;;;;;5038262;28;20033;-64
2024/02/20 00:14:41;;;;;;;3.90;1.83;;;20.30;55.40;;;;;;5039178;28;20090;-64
2024/02/20 00:17:07;;;;;;;2.97;1.60;;;20.30;55.40;;;;;;5039783;28;20017;-63
2024/02/20 00:19:33;;;;;;;2.95;1.80;;;20.30;55.30;;;;;;5038486;28;20032;-63
2024/02/20 00:21:58;;;;;;;4.60;1.98;;;20.30;55.40;;;;;;5039785;28;20448;-64
2024/02/20 00:24:24;;;;;;;3.53;1.70;;;20.30;55.40;;;;;;5038002;28;20511;-64
2024/02/20 00:26:50;;;;;;;2.90;1.40;;;20.30;55.40;;;;;;5039223;28;20579;-63
2024/02/20 00:29:15;;;;;;;3.63;1.58;;;20.30;55.30;;;;;;5038520;28;20109;-64
2024/02/20 00:31:41;;;;;;;3.05;1.45;;;20.30;55.30;;;;;;5038613;28;20151;-64
2024/02/20 00:34:07;;;;;;;3.88;1.63;;;20.30;55.30;;;;;;5036634;28;20029;-65
2024/02/20 00:36:32;;;;;;;2.97;1.60;;;20.30;55.30;;;;;;5039650;28;20022;-66
2024/02/20 00:38:59;;;;;;;3.97;1.88;;;20.30;55.40;;;;;;5036922;28;20405;-65
2024/02/20 00:41:26;;;;;;;3.03;1.50;;;20.30;55.30;;;;;;5035705;28;20501;-65
2024/02/20 00:43:52;;;;;;;4.25;1.63;;;20.30;55.30;;;;;;5039166;28;20961;-65
2024/02/20 00:46:19;;;;;;;3.38;1.60;;;20.30;55.90;;;;;;5038154;28;20022;-65
2024/02/20 00:48:46;;;;;;;3.10;1.50;;;20.30;55.40;;;;;;5039956;28;20426;-65
2024/02/20 00:51:18;;;;;;;4.13;1.50;;;20.30;55.40;;;;;;5039653;28;20132;-65
2024/02/20 00:53:44;;;;;;;2.67;1.40;;;20.30;55.30;;;;;;5036203;28;20101;-64
2024/02/20 00:56:11;;;;;;;3.63;1.55;;;20.20;55.30;;;;;;5035788;28;20022;-64
2024/02/20 00:58:39;;;;;;;2.67;1.55;;;20.20;55.30;;;;;;5038299;28;20396;-64
2024/02/20 01:01:09;;;;;;;2.97;1.50;;;20.20;55.30;;;;;;5038834;28;20029;-64
2024/02/20 01:03:39;;;;;;;2.88;1.38;;;20.30;55.30;;;;;;5038101;28;20035;-64
2024/02/20 01:06:09;;;;;;;1.98;1.20;;;20.30;55.80;;;;;;5039320;28;20037;-64
2024/02/20 01:08:35;;;;;;;3.22;1.50;;;20.20;55.20;;;;;;5037578;28;20397;-64
2024/02/20 01:11:02;;;;;;;2.67;1.33;;;20.20;55.20;;;;;;5036039;28;20044;-64
2024/02/20 01:13:27;;;;;;;3.10;1.40;;;20.20;55.20;;;;;;5039806;28;20100;-64
2024/02/20 01:15:53;;;;;;;2.78;1.20;;;20.20;55.20;;;;;;5039080;28;20116;-64
2024/02/20 01:18:19;;;;;;;3.25;1.55;;;20.20;55.70;;;;;;5039721;28;20026;-64
2024/02/20 01:20:44;;;;;;;2.28;1.40;;;20.20;55.20;;;;;;5037662;28;20048;-64
2024/02/20 01:23:10;;;;;;;2.67;1.40;;;20.20;55.70;;;;;;5038734;28;20092;-64
2024/02/20 01:25:36;;;;;;;2.80;1.40;;;20.20;55.20;;;;;;5033186;28;20491;-64
2024/02/20 01:28:02;;;;;;;3.65;1.27;;;20.20;55.20;;;;;;5037622;28;20557;-64
2024/02/20 01:30:27;;;;;;;2.95;1.30;;;20.20;55.30;;;;;;5039029;28;20079;-64
2024/02/20 01:32:57;;;;;;;2.40;1.00;;;20.20;55.20;;;;;;5038277;28;20106;-64
2024/02/20 01:35:23;;;;;;;1.83;1.25;;;20.20;55.20;;;;;;5038984;28;20389;-64
2024/02/20 01:37:49;;;;;;;2.55;1.30;;;20.20;55.20;;;;;;5040711;28;20603;-64
2024/02/20 01:40:15;;;;;;;2.83;1.50;;;20.20;55.10;;;;;;5036901;28;20104;-64
2024/02/20 01:42:41;;;;;;;2.08;1.10;;;20.20;55.10;;;;;;5037640;28;20123;-64
2024/02/20 01:45:08;;;;;;;4.72;1.92;;;20.20;55.10;;;;;;5035418;28;20033;-64
2024/02/20 01:47:34;;;;;;;3.00;1.30;;;20.20;55.60;;;;;;5037958;28;20511;-64
2024/02/20 01:50:01;;;;;;;2.80;1.38;;;20.20;55.70;;;;;;5037661;28;20030;-64
2024/02/20 01:52:27;;;;;;;2.40;1.30;;;20.20;55.10;;;;;;5038478;28;20029;-63
2024/02/20 01:54:54;;;;;;;2.80;1.30;;;20.20;55.10;;;;;;5035637;28;20036;-64
2024/02/20 01:57:20;;;;;;;4.05;1.40;;;20.20;55.10;;;;;;5037408;28;20028;-64
2024/02/20 01:59:46;;;;;;;3.05;1.52;;;20.20;55.10;;;;;;5034237;28;20033;-64
2024/02/20 02:02:12;;;;;;;2.30;1.20;;;20.10;55.00;;;;;;5037595;28;20619;-64
2024/02/20 02:04:37;;;;;;;2.15;1.20;;;20.20;55.10;;;;;;5038206;28;20033;-63
2024/02/20 02:07:03;;;;;;;2.92;1.30;;;20.20;55.10;;;;;;5041174;28;20431;-64
2024/02/20 02:09:29;;;;;;;3.38;1.60;;;20.20;55.10;;;;;;5042062;28;20437;-64
2024/02/20 02:11:55;;;;;;;2.83;1.27;;;20.20;55.10;;;;;;5039857;28;20032;-64
2024/02/20 02:14:21;;;;;;;2.25;1.20;;;20.20;55.10;;;;;;5038505;28;20496;-64
2024/02/20 02:16:46;;;;;;;2.25;1.20;;;20.20;55.10;;;;;;5040888;28;20025;-63
2024/02/20 02:19:12;;;;;;;2.63;1.33;;;20.20;55.10;;;;;;5041362;28;20056;-63
2024/02/20 02:21:38;;;;;;;2.78;1.23;;;20.20;55.10;;;;;;5040257;28;20025;-63
2024/02/20 02:24:07;;;;;;;1.77;1.10;;;20.20;55.10;;;;;;5041365;28;20504;-63
2024/02/20 02:26:34;;;;;;;2.58;1.33;;;20.10;55.00;;;;;;5040902;28;20393;-63
2024/02/20 02:29:00;;;;;;;2.42;1.17;;;20.10;55.00;;;;;;5041215;28;20543;-63
2024/02/20 02:31:25;;;;;;;2.75;1.20;;;20.10;55.00;;;;;;5041945;28;20021;-63
2024/02/20 02:33:51;;;;;;;2.08;1.10;;;20.10;55.00;;;;;;5040459;28;20043;-63
2024/02/20 02:36:17;;;;;;;1.98;1.02;;;20.10;55.00;;;;;;5041386;28;20056;-63
2024/02/20 02:38:43;;;;;;;3.00;1.30;;;20.10;55.00;;;;;;5040662;28;20032;-63
2024/02/20 02:41:10;;;;;;;2.40;1.27;;;20.10;55.00;;;;;;5040078;28;20128;-63
2024/02/20 02:43:36;;;;;;;1.95;1.10;;;20.10;55.00;;;;;;5042183;28;20036;-63
2024/02/20 02:46:01;;;;;;;3.58;1.67;;;20.10;55.00;;;;;;5041243;28;20025;-64
2024/02/20 02:48:27;;;;;;;2.67;1.30;;;20.10;55.00;;;;;;5040463;28;20100;-64
2024/02/20 02:50:53;;;;;;;2.50;1.20;;;20.10;55.00;;;;;;5040856;28;20036;-63
2024/02/20 02:53:21;;;;;;;2.38;1.05;;;20.10;55.00;;;;;;5041941;28;20032;-64
2024/02/20 02:55:47;;;;;;;2.30;1.30;;;20.10;55.00;;;;;;5040731;28;20020;-64
2024/02/20 02:58:13;;;;;;;3.13;1.10;;;20.10;55.00;;;;;;5040431;28;20341;-63
2024/02/20 03:00:39;;;;;;;2.28;1.20;;;20.10;55.00;;;;;;5041700;28;20102;-63
2024/02/20 03:03:05;;;;;;;2.33;1.20;;;20.10;55.00;;;;;;5056498;28;20029;-64
2024/02/20 03:05:31;;;;;;;1.83;1.10;;;20.10;55.00;;;;;;5040593;28;20033;-64
2024/02/20 03:07:57;;;;;;;2.13;1.25;;;20.10;55.00;;;;;;5042361;28;20048;-63
2024/02/20 03:10:24;;;;;;;2.05;1.10;;;20.10;55.00;;;;;;5037425;28;20034;-64
2024/02/20 03:12:52;;;;;;;2.20;1.10;;;20.10;54.90;;;;;;5040832;28;20074;-64
2024/02/20 03:15:17;;;;;;;2.13;1.08;;;20.10;55.00;;;;;;5041499;28;20107;-64
2024/02/20 03:17:45;;;;;;;1.83;1.20;;;20.10;54.90;;;;;;5037550;28;20055;-64
2024/02/20 03:20:14;;;;;;;2.17;1.17;;;20.10;55.00;;;;;;5038886;28;20030;-64
2024/02/20 03:22:44;;;;;;;2.50;1.20;;;20.00;54.90;;;;;;5040607;28;20025;-64
2024/02/20 03:25:10;;;;;;;;;;;20.10;54.90;;;;;;5040182;28;20074;-61
2024/02/20 03:27:36;;;;;;;1.63;1.08;;;20.10;55.00;;;;;;5040750;28;19913;-61
2024/02/20 03:30:03;;;;;;;2.00;1.20;;;20.10;54.90;;;;;;5040732;28;20030;-62
2024/02/20 03:32:29;;;;;;;1.92;1.10;;;20.00;54.90;;;;;;5038108;28;20021;-62
2024/02/20 03:34:55;;;;;;;2.60;1.25;;;20.10;54.90;;;;;;5034850;28;20796;-61
2024/02/20 03:37:20;;;;;;;2.03;1.10;;;20.00;54.90;;;;;;5036617;28;20022;-61
2024/02/20 03:39:46;;;;;;;2.00;1.00;;;20.00;54.90;;;;;;5039973;28;20044;-61
2024/02/20 03:42:11;;;;;;;1.77;1.00;;;20.10;54.90;;;;;;5036219;28;20115;-62
2024/02/20 03:44:39;;;;;;;2.28;1.20;;;20.00;54.90;;;;;;5039466;28;20386;-62
2024/02/20 03:47:05;;;;;;;1.63;1.02;;;20.00;54.90;;;;;;5039164;28;20483;-61
2024/02/20 03:49:31;;;;;;;2.30;1.02;;;20.00;55.40;;;;;;5041155;28;20072;-60
2024/02/20 03:51:57;;;;;;;1.65;1.00;;;20.00;54.90;;;;;;5039098;28;20048;-61
2024/02/20 03:54:22;;;;;;;2.35;1.27;;;20.00;54.90;;;;;;5039749;28;20443;-61
2024/02/20 03:56:48;;;;;;;2.08;1.20;;;20.00;54.90;;;;;;5035699;28;20029;-61
2024/02/20 03:59:13;;;;;;;2.10;1.10;;;20.00;54.90;;;;;;5032833;28;20377;-60
2024/02/20 04:01:39;;;;;;;2.50;1.17;;;20.00;54.90;;;;;;5042759;28;20096;-62
2024/02/20 04:04:05;;;;;;;2.00;1.10;;;20.00;54.90;;;;;;5039715;28;20032;-63
2024/02/20 04:06:31;;;;;;;1.85;1.00;;;20.00;54.90;;;;;;5037780;28;20485;-63
2024/02/20 04:09:02;;;;;;;1.80;1.00;;;20.00;54.90;;;;;;5038191;28;20052;-63
2024/02/20 04:11:28;;;;;;;1.80;0.90;;;20.00;54.90;;;;;;5036981;28;20538;-64
2024/02/20 04:13:53;;;;;;;1.42;1.00;;;20.00;54.90;;;;;;5040598;28;20024;-63
2024/02/20 04:16:19;;;;;;;1.88;1.10;;;20.00;54.90;;;;;;5038620;28;20021;-63
2024/02/20 04:18:45;;;;;;;1.50;0.90;;;20.00;54.90;;;;;;5040818;28;20021;-63
2024/02/20 04:21:10;;;;;;;1.77;1.08;;;20.00;54.90;;;;;;5039606;28;20464;-64
2024/02/20 04:23:36;;;;;;;2.17;1.08;;;20.00;54.90;;;;;;5039092;28;20045;-61
2024/02/20 04:26:01;;;;;;;2.03;1.10;;;20.00;54.90;;;;;;5036956;28;20485;-61
2024/02/20 04:28:32;;;;;;;1.38;0.98;;;20.00;54.90;;;;;;5034925;28;20039;-61
2024/02/20 04:30:58;;;;;;;2.00;1.00;;;19.90;54.90;;;;;;5036866;28;20021;-63
2024/02/20 04:33:24;;;;;;;1.50;0.90;;;20.00;54.90;;;;;;5039251;28;20036;-61
2024/02/20 04:35:49;;;;;;;1.73;1.00;;;20.00;54.90;;;;;;5037388;28;20599;-61
2024/02/20 04:38:15;;;;;;;1.65;1.00;;;20.00;54.90;;;;;;5041087;28;20102;-61
2024/02/20 04:40:40;;;;;;;1.77;1.00;;;20.00;54.90;;;;;;5037463;28;20037;-62
2024/02/20 04:43:06;;;;;;;1.70;0.85;;;19.90;54.90;;;;;;5039271;28;20435;-62
2024/02/20 04:45:31;;;;;;;1.80;0.90;;;19.90;55.00;;;;;;5038942;28;20033;-61
2024/02/20 04:47:57;;;;;;;1.23;0.80;;;19.90;55.00;;;;;;5039445;28;20063;-60
2024/02/20 04:50:23;;;;;;;1.95;1.00;;;19.90;55.00;;;;;;5038858;28;20393;-60
2024/02/20 04:52:48;;;;;;;1.98;1.00;;;19.90;55.00;;;;;;5040153;28;20030;-60
2024/02/20 04:55:14;;;;;;;1.92;1.00;;;19.90;55.00;;;;;;5040236;28;20025;-61
2024/02/20 04:57:40;;;;;;;2.42;1.10;;;19.90;55.00;;;;;;5035903;28;20047;-60
2024/02/20 05:00:10;;;;;;;1.77;0.98;;;19.90;55.00;;;;;;5039343;28;20037;-62
2024/02/20 05:02:37;;;;;;;1.38;1.00;;;19.90;55.10;;;;;;5035798;28;20466;-61
2024/02/20 05:05:03;;;;;;;1.52;0.80;;;19.90;55.10;;;;;;5037849;28;20037;-61
2024/02/20 05:07:29;;;;;;;1.48;0.90;;;19.90;55.10;;;;;;5037699;28;20039;-61
2024/02/20 05:09:55;;;;;;;2.03;0.95;;;19.90;55.10;;;;;;5038724;28;20158;-61
2024/02/20 05:12:20;;;;;;;1.48;0.93;;;19.90;55.10;;;;;;5035953;28;20879;-61
2024/02/20 05:14:49;;;;;;;2.10;0.90;;;19.90;55.10;;;;;;5038726;28;20143;-64
2024/02/20 05:17:15;;;;;;;1.48;0.88;;;19.90;55.10;;;;;;5037531;28;20027;-64
2024/02/20 05:19:41;;;;;;;1.50;0.82;;;19.90;55.20;;;;;;5039479;28;20036;-64
2024/02/20 05:22:07;;;;;;;1.25;0.90;;;19.90;55.20;;;;;;5038390;28;20029;-64
2024/02/20 05:24:36;;;;;;;0.73;0.70;;;19.90;55.20;;;;;;5037135;28;20365;-64
2024/02/20 05:27:05;;;;;;;1.40;0.90;;;19.90;55.20;;;;;;5036070;28;20375;-64
2024/02/20 05:29:31;;;;;;;1.00;0.70;;;19.90;55.20;;;;;;5037034;28;20508;-64
2024/02/20 05:31:57;;;;;;;1.55;0.90;;;19.90;55.20;;;;;;5037202;28;20056;-64
2024/02/20 05:34:23;;;;;;;1.48;0.90;;;19.90;55.30;;;;;;5033871;28;20053;-66
2024/02/20 05:36:48;;;;;;;1.92;0.95;;;19.90;55.30;;;;;;5038290;28;20079;-65
2024/02/20 05:39:14;;;;;;;1.50;0.85;;;19.90;55.30;;;;;;5037542;28;20021;-65
2024/02/20 05:41:39;;;;;;;2.13;0.90;;;19.90;55.30;;;;;;5035403;28;20437;-65
2024/02/20 05:44:05;;;;;;;1.52;0.80;;;19.90;55.30;;;;;;5039193;28;20029;-64
2024/02/20 05:46:32;;;;;;;3.33;0.90;;;19.90;55.30;;;;;;5036652;28;20489;-63
2024/02/20 05:48:58;;;;;;;1.92;0.90;;;19.90;55.30;;;;;;5036544;28;20383;-63
2024/02/20 05:51:27;;;;;;;2.00;0.93;;;19.90;55.30;;;;;;5036774;28;20047;-63
2024/02/20 05:53:53;;;;;;;1.92;0.90;;;19.90;55.40;;;;;;5037839;28;20025;-63
2024/02/20 05:56:23;;;;;;;1.85;1.00;;;19.90;55.30;;;;;;5040591;28;20025;-63
2024/02/20 05:58:48;;;;;;;1.45;0.90;;;19.90;55.40;;;;;;5033338;28;20080;-63
2024/02/20 06:01:15;;;;;;;1.42;0.90;;;19.90;55.40;;;;;;5035540;28;20033;-63
2024/02/20 06:03:42;;;;;;;2.15;0.80;;;19.90;55.40;;;;;;5034274;28;20105;-64
2024/02/20 06:06:08;;;;;;;1.85;1.00;;;19.90;55.40;;;;;;5034911;28;20507;-64
2024/02/20 06:08:35;;;;;;;1.55;0.90;;;19.90;55.60;;;;;;5037114;28;20088;-64
2024/02/20 06:11:00;;;;;;;1.70;0.90;;;19.90;55.70;;;;;;5036778;28;20025;-64
2024/02/20 06:13:26;;;;;;;2.20;1.00;;;19.90;55.80;;;;;;5035183;28;20030;-64
2024/02/20 06:15:52;;;;;;;1.48;0.80;;;19.90;55.90;;;;;;5037075;28;20038;-63
2024/02/20 06:18:17;;;;;;;2.60;1.10;;;19.90;55.90;;;;;;5036822;28;20022;-64
2024/02/20 06:20:45;;;;;;;1.77;0.90;;;19.90;56.00;;;;;;5036771;28;20107;-63
2024/02/20 06:23:13;;;;;;;1.73;0.90;;;19.90;56.10;;;;;;5035632;28;20104;-64
2024/02/20 06:25:43;;;;;;;2.10;1.02;;;19.90;56.10;;;;;;5037911;28;20029;-64
2024/02/20 06:28:09;;;;;;;1.98;0.95;;;19.90;56.20;;;;;;5032644;28;20470;-64
2024/02/20 06:30:35;;;;;;;2.70;0.90;;;19.90;56.20;;;;;;5035187;28;20361;-65
2024/02/20 06:33:02;;;;;;;2.53;0.80;;;19.90;56.00;;;;;;5036273;28;20025;-65
2024/02/20 06:35:27;;;;;;;2.45;0.93;;;19.90;56.20;;;;;;5037099;28;20035;-65
2024/02/20 06:37:53;;;;;;;1.77;1.00;;;19.90;56.10;;;;;;5037742;28;20486;-65
2024/02/20 06:40:19;;;;;;;1.38;0.90;;;20.00;56.30;;;;;;5038198;28;20026;-65
2024/02/20 06:42:44;;;;;;;2.05;0.90;;;20.00;56.10;;;;;;5034833;28;20025;-61
2024/02/20 06:45:10;;;;;;;1.73;0.93;;;20.10;56.00;;;;;;5037267;28;20705;-65
2024/02/20 06:47:35;;;;;;;1.40;0.82;;;20.10;55.90;;;;;;5038739;28;20096;-65
2024/02/20 06:50:01;;;;;;;2.25;0.90;;;20.20;56.00;;;;;;5037180;28;20140;-65
2024/02/20 06:52:27;;;;;;;1.67;0.98;;;20.30;55.90;;;;;;5040435;28;20021;-65
2024/02/20 06:54:53;;;;;;;1.80;0.90;;;20.30;55.90;;;;;;5039525;28;20443;-65
2024/02/20 06:57:18;;;;;;;3.70;1.00;;;20.40;55.80;;;;;;5038556;28;20100;-65
2024/02/20 06:59:44;;;;;;;1.30;0.80;;;20.50;55.90;;;;;;5041457;28;20029;-65
2024/02/20 07:02:09;;;;;;;2.05;0.82;;;20.50;55.70;;;;;;5042735;28;20454;-65
2024/02/20 07:04:38;;;;;;;1.48;0.95;;;20.50;55.60;;;;;;5040729;28;20037;-65
2024/02/20 07:07:04;;;;;;;1.73;0.80;;;20.60;55.60;;;;;;5039291;28;20037;-65
2024/02/20 07:09:29;;;;;;;1.55;0.80;;;20.70;55.60;;;;;;5038292;28;20029;-65
2024/02/20 07:11:55;;;;;;;1.30;0.70;;;20.70;55.40;;;;;;5040869;28;20057;-65
2024/02/20 07:14:21;;;;;;;1.48;0.82;;;20.80;55.40;;;;;;5037133;28;20899;-65
2024/02/20 07:16:46;;;;;;;1.70;0.80;;;20.90;55.30;;;;;;5038542;28;20025;-65
2024/02/20 07:19:12;;;;;;;1.67;0.90;;;20.90;55.00;;;;;;5040331;28;20692;-65
2024/02/20 07:21:37;;;;;;;1.08;0.77;;;20.90;54.90;;;;;;5037622;28;20390;-65
2024/02/20 07:24:03;;;;;;;1.45;0.80;;;20.90;55.70;;;;;;5039577;28;20496;-66
2024/02/20 07:26:29;;;;;;;1.75;0.82;;;21.20;55.80;;;;;;5039806;28;20068;-65
2024/02/20 07:28:55;;;;;;;0.95;0.70;;;21.50;55.60;;;;;;5038062;28;20021;-65
2024/02/20 07:31:25;;;;;;;1.15;0.60;;;21.70;55.50;;;;;;5041145;28;20072;-65
2024/02/20 07:33:50;;;;;;;0.68;0.50;;;21.90;55.40;;;;;;5040192;28;20025;-65
2024/02/20 07:36:16;;;;;;;1.30;0.70;;;22.10;54.90;;;;;;5037727;28;20078;-66
2024/02/20 07:38:46;;;;;;;1.20;0.57;;;22.10;54.80;;;;;;5041962;28;20040;-66
2024/02/20 07:41:11;;;;;;;0.98;0.60;;;22.10;55.20;;;;;;5039960;28;20504;-66
2024/02/20 07:43:40;;;;;;;2.53;0.70;;;22.20;55.60;;;;;;5036847;28;20116;-66
2024/02/20 07:46:06;;;;;;;0.75;0.60;;;22.20;55.80;;;;;;5038681;28;20502;-65
2024/02/20 07:48:32;;;;;;;2.38;0.80;;;22.10;56.00;;;;;;5039932;28;20078;-66
2024/02/20 07:50:57;;;;;;;0.57;0.57;;;22.10;56.00;;;;;;5037250;28;20512;-66
2024/02/20 07:53:23;;;;;;;1.65;0.70;;;22.20;56.30;;;;;;5038013;28;20029;-65
2024/02/20 07:55:48;;;;;;;1.27;0.80;;;22.20;56.50;;;;;;5039528;28;20021;-66
2024/02/20 07:58:14;;;;;;;1.55;0.88;;;22.20;56.40;;;;;;5038588;28;20047;-66
2024/02/20 08:00:39;;;;;;;2.15;0.70;;;22.20;56.50;;;;;;5038244;28;20072;-66
2024/02/20 08:03:08;;;;;;;2.40;0.80;;;22.20;56.50;;;;;;5040296;28;20497;-66
2024/02/20 08:05:33;;;;;;;1.50;0.90;;;22.20;56.50;;;;;;5042140;28;20375;-65
2024/02/20 08:07:59;;;;;;;2.83;0.75;;;22.20;56.70;;;;;;5042316;28;20036;-65
2024/02/20 08:10:25;;;;;;;0.90;0.70;;;22.20;56.60;;;;;;5035898;28;20044;-65
2024/02/20 08:12:51;;;;;;;2.05;0.73;;;22.30;56.70;;;;;;5035063;28;20222;-65
2024/02/20 08:15:16;;;;;;;1.80;0.80;;;22.30;57.10;;;;;;5038420;28;20096;-65
2024/02/20 08:17:42;;;;;;;2.47;0.90;;;22.30;57.30;;;;;;5039689;28;20478;-65
2024/02/20 08:20:09;;;;;;;0.95;0.63;;;22.30;57.30;;;;;;5037381;28;20446;-65
2024/02/20 08:22:35;;;;;;;1.30;0.70;;;22.40;57.40;;;;;;5039275;28;20025;-65
2024/02/20 08:25:00;;;;;;;1.05;0.68;;;22.40;57.40;;;;;;5039372;28;20039;-65
2024/02/20 08:27:26;;;;;;;1.10;0.70;;;22.40;57.60;;;;;;5038054;28;20041;-65
2024/02/20 08:29:54;;;;;;;1.80;0.88;;;22.40;58.00;;;;;;5036606;28;20358;-64
2024/02/20 08:32:19;;;;;;;1.77;0.70;;;22.50;57.90;;;;;;5037782;28;20110;-65
2024/02/20 08:34:45;;;;;;;1.40;0.70;;;22.50;57.90;;;;;;5039298;28;20492;-65
2024/02/20 08:37:10;;;;;;;2.08;0.70;;;22.50;58.20;;;;;;5038164;28;20036;-65
2024/02/20 08:39:36;;;;;;;1.55;0.70;;;22.60;58.70;;;;;;5038921;28;20037;-65
2024/02/20 08:42:01;;;;;;;2.92;0.93;;;22.50;58.90;;;;;;5037103;28;20037;-65
2024/02/20 08:44:27;;;;;;;1.05;0.70;;;22.60;59.10;;;;;;5036072;28;20028;-65
2024/02/20 08:46:53;;;;;;;1.20;0.70;;;22.60;58.90;;;;;;5039286;28;20588;-65
2024/02/20 08:49:18;;;;;;;1.90;0.73;;;22.60;59.00;;;;;;5038835;28;20036;-65
2024/02/20 08:51:44;;;;;;;2.05;0.75;;;22.60;58.90;;;;;;5037963;28;20104;-65
2024/02/20 08:54:09;;;;;;;1.13;0.70;;;22.70;59.00;;;;;;5040448;28;20017;-65
2024/02/20 08:56:35;;;;;;;1.90;0.80;;;22.70;59.00;;;;;;5038551;28;20667;-65
2024/02/20 08:59:01;;;;;;;1.77;0.80;;;22.70;59.10;;;;;;5031725;28;20032;-65
2024/02/20 09:01:26;;;;;;;3.50;0.70;;;22.70;59.40;;;;;;5037492;28;20029;-65
2024/02/20 09:03:54;;;;;;;2.05;0.70;;;22.70;59.30;;;;;;5038951;28;20029;-65
2024/02/20 09:06:20;;;;;;;1.05;0.60;;;22.80;59.40;;;;;;5036312;28;20037;-65
2024/02/20 09:08:46;;;;;;;1.02;0.57;;;22.70;59.30;;;;;;5039282;28;20535;-65
2024/02/20 09:11:11;;;;;;;1.67;0.80;;;22.80;59.20;;;;;;5038759;28;20052;-65
2024/02/20 09:13:38;;;;;;;1.95;0.80;;;22.80;59.20;;;;;;5036734;28;20071;-63
2024/02/20 09:16:04;;;;;;;1.08;0.60;;;22.80;59.10;;;;;;5036529;28;20013;-62
2024/02/20 09:18:36;;;;;;;1.17;0.60;;;22.80;58.90;;;;;;5036855;28;20079;-62
2024/02/20 09:21:04;;;;;;;1.20;0.70;;;22.80;58.90;;;;;;5039584;28;20025;-62
2024/02/20 09:23:31;;;;;;;1.15;0.63;;;22.90;59.00;;;;;;5037988;28;20082;-61
2024/02/20 09:25:56;;;;;;;2.22;0.88;;;22.90;59.10;;;;;;5038465;28;20060;-61
2024/02/20 09:28:22;;;;;;;4.20;0.60;;;22.90;59.00;;;;;;5035529;28;20065;-62
2024/02/20 09:30:47;;;;;;;3.28;0.70;;;22.90;59.60;;;;;;5039147;28;20057;-62
2024/02/20 09:33:16;;;;;;;0.98;0.60;;;23.00;59.00;;;;;;5035976;28;20107;-62
2024/02/20 09:35:42;;;;;;;1.20;0.52;;;23.00;58.90;;;;;;5037212;28;20431;-61
2024/02/20 09:38:08;;;;;;;1.08;0.70;;;23.00;58.80;;;;;;5038707;28;20070;-62
2024/02/20 09:40:34;;;;;;;1.60;0.60;;;23.00;59.00;;;;;;5038364;28;20928;-63
2024/02/20 09:43:03;;;;;;;1.95;0.60;;;23.00;59.00;;;;;;5037531;28;20094;-61
2024/02/20 09:45:30;;;;;;;1.48;0.70;;;23.00;58.90;;;;;;5034868;28;20065;-64
2024/02/20 09:47:56;;;;;;;2.15;0.80;;;23.10;59.10;;;;;;5036832;28;20041;-62
2024/02/20 09:50:22;;;;;;;1.17;0.80;;;23.10;59.20;;;;;;5035687;28;20428;-62
2024/02/20 09:52:53;;;;;;;2.95;0.90;;;23.10;59.30;;;;;;5036867;28;20040;-62
2024/02/20 09:55:21;;;;;;;2.33;0.70;;;23.10;59.30;;;;;;5037975;28;20064;-65
2024/02/20 09:57:49;;;;;;;1.98;0.63;;;23.10;59.10;;;;;;5037479;28;20075;-65
2024/02/20 10:00:16;;;;;;;1.35;0.52;;;23.10;59.00;;;;;;5036101;28;20057;-65
2024/02/20 10:02:44;;;;;;;2.08;0.70;;;23.20;59.00;;;;;;5039078;28;20436;-65
2024/02/20 10:05:17;;;;;;;2.03;0.70;;;23.20;59.00;;;;;;5035980;28;20048;-65
2024/02/20 10:07:44;;;;;;;0.90;0.60;;;23.20;59.00;;;;;;5038634;28;20556;-66
2024/02/20 10:10:11;;;;;;;2.60;0.60;;;23.20;59.60;;;;;;5038022;28;20056;-66
2024/02/20 10:12:39;;;;;;;1.02;0.60;;;23.20;59.10;;;;;;5038271;28;20036;-65
2024/02/20 10:15:08;;;;;;;1.40;0.55;;;23.20;59.20;;;;;;5041859;28;20052;-67
2024/02/20 10:17:35;;;;;;;3.08;0.55;;;23.20;59.20;;;;;;5038618;28;20029;-66
2024/02/20 10:20:11;;;;;;;1.60;0.80;;;23.30;59.10;;;;;;5037554;28;20033;-66
2024/02/20 10:22:41;;;;;;;1.48;0.90;;;23.20;56.00;;;;;;5039780;28;20052;-66
2024/02/20 10:25:08;;;;;;;2.63;1.00;;;23.20;54.00;;;;;;5036468;28;20080;-65
2024/02/20 10:27:36;;;;;;;1.77;0.90;;;23.20;53.00;;;;;;5040897;28;20357;-66
2024/02/20 10:30:07;;;;;;;1.73;0.90;;;23.10;53.10;;;;;;5039699;28;20069;-66
2024/02/20 10:32:34;;;;;;;2.33;1.10;;;23.10;52.90;;;;;;5041434;28;20068;-66
2024/02/20 10:35:01;;;;;;;2.30;0.93;;;23.00;52.60;;;;;;5041571;28;20013;-65
2024/02/20 10:37:27;;;;;;;2.72;1.08;;;23.00;52.60;;;;;;5039626;28;20029;-65
2024/02/20 10:40:15;;;;;;;1.48;0.80;;;23.00;52.40;;;;;;5039365;28;20021;-65
2024/02/20 10:42:40;;;;;;;2.33;1.00;;;23.00;52.60;;;;;;5043539;28;20425;-66
2024/02/20 10:45:10;;;;;;;3.20;0.82;;;23.00;52.20;;;;;;5039109;28;20076;-65
2024/02/20 10:47:39;;;;;;;;;;;23.00;52.20;;;;;;5041735;28;20481;-65
2024/02/20 10:50:08;;;;;;;1.27;0.90;;;22.90;52.00;;;;;;5041403;28;20040;-65
2024/02/20 10:52:36;;;;;;;1.88;1.10;;;22.90;52.00;;;;;;5041228;28;20420;-65
2024/02/20 10:55:06;;;;;;;2.30;0.97;;;22.90;52.00;;;;;;5041292;28;20418;-65
2024/02/20 10:57:36;;;;;;;1.60;0.88;;;22.80;52.20;;;;;;5039719;28;20561;-65
2024/02/20 11:00:09;;;;;;;;;;;22.80;52.00;;;;;;5037681;28;20088;-65
2024/02/20 11:02:45;;;;;;;1.65;0.95;;;22.80;51.90;;;;;;5042584;28;20376;-65
2024/02/20 11:05:13;;;;;;;2.08;1.20;;;22.80;52.00;;;;;;5039184;28;20025;-62
2024/02/20 11:07:39;;;;;;;2.33;1.10;;;22.80;52.00;;;;;;5039670;28;20029;-61
2024/02/20 11:10:18;;;;;;;1.58;1.08;;;22.80;51.90;;;;;;5040860;28;20033;-62
2024/02/20 11:12:45;;;;;;;2.03;1.10;;;22.80;52.30;;;;;;5038546;28;20027;-62
2024/02/20 11:15:14;;;;;;;2.00;1.05;;;22.80;52.20;;;;;;5040063;28;20385;-63
2024/02/20 11:17:41;;;;;;;1.92;1.10;;;22.80;51.80;;;;;;5040973;28;20026;-61
2024/02/20 11:20:09;;;;;;;2.75;1.17;;;22.80;52.20;;;;;;5039702;28;20037;-63
2024/02/20 11:22:35;;;;;;;1.90;0.98;;;22.80;51.70;;;;;;5039731;28;20026;-61
2024/02/20 11:25:10;;;;;;;1.35;0.80;;;22.80;51.50;;;;;;5037242;28;20090;-62
2024/02/20 11:27:37;;;;;;;2.40;1.15;;;22.70;51.40;;;;;;5041726;28;20025;-62
2024/02/20 11:30:27;;;;;;;1.52;1.00;;;22.70;51.60;;;;;;5037801;28;20571;-63
2024/02/20 11:32:54;;;;;;;3.70;1.05;;;22.70;51.40;;;;;;5038956;28;20041;-63
2024/02/20 11:35:24;;;;;;;1.25;0.80;;;22.70;51.60;;;;;;5037626;28;20044;-65
2024/02/20 11:37:54;;;;;;;1.27;0.90;;;22.70;51.60;;;;;;5038474;28;20475;-65
2024/02/20 11:40:24;;;;;;;1.85;1.00;;;22.70;51.70;;;;;;5037734;28;20025;-66
2024/02/20 11:42:51;;;;;;;3.17;1.08;;;22.70;51.80;;;;;;5039697;28;20430;-65
2024/02/20 11:45:21;;;;;;;2.13;1.00;;;22.70;51.70;;;;;;5037674;28;20033;-65
2024/02/20 11:48:08;;;;;;;4.70;1.13;;;22.60;51.70;;;;;;5041213;28;20032;-65
2024/02/20 11:50:40;;;;;;;1.75;1.00;;;22.70;51.60;;;;;;5039523;28;20032;-65
2024/02/20 11:53:13;;;;;;;2.17;1.30;;;22.70;51.70;;;;;;5038550;28;20030;-67
2024/02/20 11:55:43;;;;;;;1.83;1.00;;;22.60;51.60;;;;;;5038633;28;20021;-67
2024/02/20 11:58:14;;;;;;;1.45;0.88;;;22.70;51.80;;;;;;5040667;28;20040;-67
2024/02/20 12:00:40;;;;;;;1.50;0.85;;;22.60;51.70;;;;;;5037019;28;20045;-67
2024/02/20 12:03:09;;;;;;;1.60;1.00;;;22.60;51.80;;;;;;5041860;28;20040;-67
2024/02/20 12:05:40;;;;;;;1.92;1.10;;;22.60;51.80;;;;;;5040420;28;20041;-67
2024/02/20 12:08:17;;;;;;;1.90;1.00;;;22.60;52.00;;;;;;5037973;28;20134;-67
2024/02/20 12:10:44;;;;;;;2.20;1.20;;;22.60;51.80;;;;;;5037894;28;20022;-66
2024/02/20 12:13:17;;;;;;;3.78;1.13;;;22.70;52.00;;;;;;5038778;28;20036;-65
2024/02/20 12:15:48;;;;;;;2.13;1.08;;;22.70;51.90;;;;;;5035303;28;20033;-65
2024/02/20 12:18:25;;;;;;;2.58;1.30;;;22.70;51.80;;;;;;5039240;28;20021;-64
2024/02/20 12:20:52;;;;;;;2.60;1.38;;;22.70;51.80;;;;;;5037307;28;20025;-65
2024/02/20 12:23:19;;;;;;;2.53;1.30;;;22.70;51.80;;;;;;5040080;28;20382;-64
2024/02/20 12:25:45;;;;;;;2.63;1.30;;;22.70;52.30;;;;;;5037616;28;20526;-65
2024/02/20 12:28:11;;;;;;;2.70;1.30;;;22.70;51.80;;;;;;5041448;28;20464;-65
2024/02/20 12:30:38;;;;;;;2.90;1.23;;;22.70;51.80;;;;;;5038717;28;20036;-65
2024/02/20 12:33:04;;;;;;;2.30;1.17;;;22.70;52.30;;;;;;5038814;28;20143;-65
2024/02/20 12:35:29;;;;;;;2.53;1.20;;;22.70;51.80;;;;;;5038056;28;20069;-66
2024/02/20 12:37:55;;;;;;;1.77;1.00;;;22.60;51.70;;;;;;5040366;28;20112;-65
2024/02/20 12:40:20;;;;;;;2.10;1.05;;;22.60;51.70;;;;;;5039656;28;20060;-65
2024/02/20 12:42:46;;;;;;;1.80;1.00;;;22.60;51.80;;;;;;5038801;28;20431;-65
2024/02/20 12:45:12;;;;;;;1.70;1.00;;;22.60;51.80;;;;;;5036839;28;20037;-65